PWSweather.com
Personal Weather Stations
Station Observations
IVENETOL9
Brugine, BrugineIT 35020

BrugineBrugineIT 35020

Lat: 45.2975, Lon: 11.9962777

Elevation: 19

Station Type: Davis Vantage Pro2 Plus

http://www.meteobrugine.it/

Latest ConditionsUpdated 5:30:24 AM GMT+01:01 Wednesday, Jul 8, 2015
Currently Today's Max Today's Min Today's Average
Temperature 76.9°F24.9°C 77.3°F25.2°C 74.9°F23.8°C 76.4°F24.7°C
Dew Point 76.3°F24.6°C 76.4°F24.7°C 73.4°F23.0°C 74.6°F23.7°C
Winds Calm Calm 0.1 mph ENE0.2 kmh ENE - 0.0 mph 0.0 kmh
Wind Gusts -- -- - -
Humidity 98% 98% 92% 94%
Pressure 29.79 in1008.8 mb 29.85 in1010.8 mb 29.78 in1008.5 mb -
Hour Temp Dew Point Humidity Winds Wind Gusts Pressure Precip Precip Rate Daily Precip Total
05:30 AM 76.9°F24.9°C 76.3°F24.6°C 98% Calm Calm -- 29.79 in1008.8 mb - 0.00 in0.0 mm 0.00 in0.0 mm
05:15 AM 77.0°F25.0°C 76.1°F24.5°C 97% Calm Calm -- 29.79 in1008.8 mb - 0.00 in0.0 mm 0.00 in0.0 mm
05:00 AM 77.3°F25.2°C 76.4°F24.7°C 97% Calm Calm -- 29.78 in1008.5 mb - 0.00 in0.0 mm 0.00 in0.0 mm
04:45 AM 76.9°F24.9°C 76.0°F24.4°C 97% Calm Calm -- 29.78 in1008.5 mb - 0.00 in0.0 mm 0.00 in0.0 mm
04:30 AM 76.8°F24.9°C 75.6°F24.2°C 96% 0.1 mph ENE0.2 kmh ENE -- 29.79 in1008.8 mb - 0.00 in0.0 mm 0.00 in0.0 mm
04:15 AM 77.0°F25.0°C 75.4°F24.1°C 95% Calm Calm -- 29.79 in1008.8 mb - 0.00 in0.0 mm 0.00 in0.0 mm
04:00 AM 77.2°F25.1°C 75.3°F24.1°C 94% Calm Calm -- 29.79 in1008.8 mb - 0.00 in0.0 mm 0.00 in0.0 mm
03:45 AM 77.2°F25.1°C 75.3°F24.1°C 94% Calm Calm -- 29.80 in1009.1 mb - 0.00 in0.0 mm 0.00 in0.0 mm
03:30 AM 77.2°F25.1°C 75.0°F23.9°C 93% Calm Calm -- 29.80 in1009.1 mb - 0.00 in0.0 mm 0.00 in0.0 mm
03:15 AM 76.8°F24.9°C 74.6°F23.7°C 93% Calm Calm -- 29.81 in1009.5 mb - 0.00 in0.0 mm 0.00 in0.0 mm
03:00 AM 76.9°F24.9°C 74.4°F23.6°C 92% Calm Calm -- 29.81 in1009.5 mb - 0.00 in0.0 mm 0.00 in0.0 mm
02:45 AM 77.0°F25.0°C 74.8°F23.8°C 93% Calm Calm -- 29.81 in1009.5 mb - 0.00 in0.0 mm 0.00 in0.0 mm
02:30 AM 76.1°F24.5°C 73.9°F23.3°C 93% Calm Calm -- 29.82 in1009.8 mb - 0.00 in0.0 mm 0.00 in0.0 mm
02:15 AM 76.2°F24.6°C 74.0°F23.3°C 93% Calm Calm -- 29.81 in1009.5 mb - 0.00 in0.0 mm 0.00 in0.0 mm
02:00 AM 75.5°F24.2°C 73.7°F23.2°C 94% Calm Calm -- 29.82 in1009.8 mb - 0.00 in0.0 mm 0.00 in0.0 mm
01:45 AM 74.9°F23.8°C 73.4°F23.0°C 95% Calm Calm -- 29.82 in1009.8 mb - 0.00 in0.0 mm 0.00 in0.0 mm
01:30 AM 75.0°F23.9°C 73.5°F23.1°C 95% Calm Calm -- 29.83 in1010.2 mb - 0.00 in0.0 mm 0.00 in0.0 mm
01:15 AM 75.6°F24.2°C 73.8°F23.2°C 94% Calm Calm -- 29.82 in1009.8 mb - 0.00 in0.0 mm 0.00 in0.0 mm
01:00 AM 76.4°F24.7°C 73.9°F23.3°C 92% Calm Calm -- 29.82 in1009.8 mb - 0.00 in0.0 mm 0.00 in0.0 mm
12:45 AM 76.2°F24.6°C 74.0°F23.3°C 93% Calm Calm -- 29.83 in1010.2 mb - 0.00 in0.0 mm 0.00 in0.0 mm
12:30 AM 75.6°F24.2°C 73.5°F23.1°C 93% Calm Calm -- 29.84 in1010.5 mb - 0.00 in0.0 mm 0.00 in0.0 mm
12:15 AM 76.0°F24.4°C 73.8°F23.2°C 93% Calm Calm -- 29.85 in1010.8 mb - 0.00 in0.0 mm 0.00 in0.0 mm
12:00 AM 76.0°F24.4°C 73.8°F23.2°C 93% Calm Calm -- 29.85 in1010.8 mb - 0.00 in0.0 mm 0.00 in0.0 mm